createdAt,value
2018-08-17T00:00:26.711Z,6.47
2018-08-17T00:02:54.300Z,5.37
2018-08-17T00:05:21.952Z,5.73
2018-08-17T00:07:49.707Z,5.87
2018-08-17T00:10:17.320Z,6.10
2018-08-17T00:12:44.887Z,5.00
2018-08-17T00:15:12.443Z,6.00
2018-08-17T00:17:40.050Z,6.27
2018-08-17T00:20:07.715Z,6.60
2018-08-17T00:22:35.258Z,5.93
2018-08-17T00:25:02.867Z,6.30
2018-08-17T00:27:30.450Z,6.00
2018-08-17T00:29:58.007Z,6.70
2018-08-17T00:32:25.584Z,6.23
2018-08-17T00:34:53.161Z,5.73
2018-08-17T00:37:20.748Z,6.60
2018-08-17T00:39:48.311Z,6.30
2018-08-17T00:42:15.844Z,6.53
2018-08-17T00:44:43.439Z,6.40
2018-08-17T00:47:11.039Z,7.10
2018-08-17T00:49:38.956Z,7.10
2018-08-17T00:52:06.592Z,6.53
2018-08-17T00:54:34.153Z,5.80
2018-08-17T00:57:01.714Z,5.93
2018-08-17T00:59:29.328Z,6.47
2018-08-17T01:01:56.903Z,6.40
2018-08-17T01:04:24.514Z,6.70
2018-08-17T01:06:52.149Z,5.77
2018-08-17T01:09:19.717Z,7.07
2018-08-17T01:11:47.260Z,6.80
2018-08-17T01:14:14.836Z,6.70
2018-08-17T01:16:42.432Z,6.93
2018-08-17T01:19:09.981Z,6.20
2018-08-17T01:21:37.543Z,6.40
2018-08-17T01:24:05.134Z,5.90
2018-08-17T01:26:32.674Z,6.10
2018-08-17T01:29:00.267Z,6.73
2018-08-17T01:31:27.848Z,5.13
2018-08-17T01:33:55.456Z,6.40
2018-08-17T01:36:23.056Z,5.80
2018-08-17T01:38:50.615Z,6.80
2018-08-17T01:41:18.173Z,6.80
2018-08-17T01:43:45.739Z,7.20
2018-08-17T01:46:13.294Z,6.43
2018-08-17T01:48:40.885Z,6.30
2018-08-17T01:51:08.445Z,6.60
2018-08-17T01:53:36.042Z,7.23
2018-08-17T01:56:03.658Z,6.43
2018-08-17T01:58:31.226Z,7.07
2018-08-17T02:00:58.812Z,6.67
2018-08-17T02:03:26.374Z,7.27
2018-08-17T02:05:54.045Z,7.73
2018-08-17T02:08:21.587Z,7.33
2018-08-17T02:10:49.194Z,6.37
2018-08-17T02:13:16.736Z,7.53
2018-08-17T02:15:44.337Z,7.70
2018-08-17T02:18:11.943Z,5.80
2018-08-17T02:20:39.513Z,7.20
2018-08-17T02:23:07.408Z,6.60
2018-08-17T02:25:34.941Z,6.90
2018-08-17T02:28:02.496Z,6.90
2018-08-17T02:30:30.060Z,7.07
2018-08-17T02:32:57.614Z,8.23
2018-08-17T02:35:25.156Z,6.90
2018-08-17T02:37:52.708Z,7.10
2018-08-17T02:40:20.361Z,6.40
2018-08-17T02:42:47.944Z,7.03
2018-08-17T02:45:15.520Z,6.40
2018-08-17T02:47:43.155Z,6.73
2018-08-17T02:50:10.737Z,6.73
2018-08-17T02:52:38.295Z,6.93
2018-08-17T02:55:05.868Z,7.77
2018-08-17T02:57:33.450Z,7.00
2018-08-17T03:00:01.056Z,7.57
2018-08-17T03:02:28.612Z,6.90
2018-08-17T03:04:56.168Z,6.43
2018-08-17T03:07:23.759Z,6.07
2018-08-17T03:09:51.332Z,7.87
2018-08-17T03:12:18.911Z,7.23
2018-08-17T03:14:46.458Z,7.10
2018-08-17T03:17:14.026Z,6.97
2018-08-17T03:19:41.628Z,7.23
2018-08-17T03:22:09.199Z,7.57
2018-08-17T03:24:36.752Z,6.90
2018-08-17T03:27:04.343Z,6.83
2018-08-17T03:29:31.938Z,7.00
2018-08-17T03:31:59.499Z,6.83
2018-08-17T03:34:27.092Z,6.77
2018-08-17T03:36:54.663Z,6.87
2018-08-17T03:39:22.211Z,7.40
2018-08-17T03:41:49.836Z,7.60
2018-08-17T03:44:17.456Z,7.93
2018-08-17T03:46:45.017Z,7.80
2018-08-17T03:49:12.610Z,7.00
2018-08-17T03:51:40.156Z,6.63
2018-08-17T03:54:07.773Z,6.63
2018-08-17T03:56:35.327Z,6.73
2018-08-17T03:59:02.888Z,6.93
2018-08-17T04:01:30.442Z,6.73
2018-08-17T04:03:58.032Z,7.77
2018-08-17T04:06:25.610Z,8.17
2018-08-17T04:08:53.156Z,7.90
2018-08-17T04:11:20.704Z,7.77
2018-08-17T04:13:48.284Z,7.97
2018-08-17T04:16:15.856Z,7.97
2018-08-17T04:18:47.746Z,7.53
2018-08-17T04:21:15.322Z,7.47
2018-08-17T04:23:42.958Z,7.93
2018-08-17T04:26:10.483Z,7.30
2018-08-17T04:28:38.079Z,7.60
2018-08-17T04:31:05.630Z,7.70
2018-08-17T04:33:33.221Z,7.47
2018-08-17T04:36:00.806Z,7.77
2018-08-17T04:38:28.355Z,7.70
2018-08-17T04:40:55.907Z,8.13
2018-08-17T04:43:23.513Z,7.40
2018-08-17T04:45:51.089Z,7.60
2018-08-17T04:48:18.660Z,7.10
2018-08-17T04:50:46.198Z,7.33
2018-08-17T04:53:13.765Z,7.40
2018-08-17T04:55:41.355Z,8.23
2018-08-17T04:58:08.923Z,7.80
2018-08-17T05:00:36.580Z,7.43
2018-08-17T05:03:04.171Z,8.40
2018-08-17T05:05:31.753Z,7.73
2018-08-17T05:07:59.334Z,8.00
2018-08-17T05:10:26.892Z,8.60
2018-08-17T05:12:54.491Z,7.93
2018-08-17T05:15:22.056Z,7.87
2018-08-17T05:17:49.656Z,8.33
2018-08-17T05:20:17.210Z,8.47
2018-08-17T05:22:44.779Z,8.83
2018-08-17T05:25:12.344Z,9.17
2018-08-17T05:27:39.931Z,9.40
2018-08-17T05:30:07.584Z,9.47
2018-08-17T05:32:35.138Z,8.40
2018-08-17T05:35:02.741Z,8.70
2018-08-17T05:37:30.323Z,9.40
2018-08-17T05:39:57.907Z,8.87
2018-08-17T05:42:25.480Z,9.70
2018-08-17T05:44:53.064Z,10.30
2018-08-17T05:47:20.631Z,9.87
2018-08-17T05:49:48.199Z,10.37
2018-08-17T05:52:15.802Z,10.40
2018-08-17T05:54:43.393Z,10.40
2018-08-17T05:57:10.989Z,9.50
2018-08-17T05:59:38.602Z,10.70
2018-08-17T06:02:06.206Z,9.27
2018-08-17T06:04:33.864Z,10.23
2018-08-17T06:07:01.465Z,9.70
2018-08-17T06:09:29.119Z,8.77
2018-08-17T06:11:56.700Z,9.20
2018-08-17T06:14:24.519Z,9.40
2018-08-17T06:16:52.272Z,8.60
2018-08-17T06:19:20.122Z,8.93
2018-08-17T06:21:47.838Z,8.33
2018-08-17T06:24:15.679Z,7.70
2018-08-17T06:26:43.503Z,9.83
2018-08-17T06:29:11.320Z,8.90
2018-08-17T06:31:39.143Z,9.53
2018-08-17T06:34:06.947Z,8.47
2018-08-17T06:36:34.716Z,8.90
2018-08-17T06:39:02.511Z,10.27
2018-08-17T06:41:30.355Z,9.60
2018-08-17T06:43:58.224Z,9.73
2018-08-17T06:46:25.973Z,9.07
2018-08-17T06:48:53.765Z,9.40
2018-08-17T06:51:21.594Z,9.23
2018-08-17T06:53:49.384Z,8.37
2018-08-17T06:56:17.136Z,8.80
2018-08-17T06:58:44.916Z,9.83
2018-08-17T07:01:12.683Z,7.93
2018-08-17T07:03:40.569Z,10.30
2018-08-17T07:06:08.415Z,8.90
2018-08-17T07:08:36.218Z,9.20
2018-08-17T07:11:04.025Z,8.13
2018-08-17T07:13:31.805Z,7.33
2018-08-17T07:15:59.675Z,7.70
2018-08-17T07:18:27.431Z,7.37
2018-08-17T07:20:55.234Z,7.30
2018-08-17T07:23:23.071Z,9.10
2018-08-17T07:25:51.062Z,7.70
2018-08-17T07:28:19.621Z,7.80
2018-08-17T07:30:47.411Z,7.70
2018-08-17T07:33:15.257Z,7.77
2018-08-17T07:35:43.043Z,8.10
2018-08-17T07:38:10.888Z,7.40
2018-08-17T07:40:38.644Z,7.90
2018-08-17T07:43:06.561Z,8.63
2018-08-17T07:45:34.385Z,8.50
2018-08-17T07:48:02.757Z,7.70
2018-08-17T07:50:30.281Z,8.53
2018-08-17T07:52:58.088Z,7.60
2018-08-17T07:55:25.890Z,8.27
2018-08-17T07:57:53.526Z,7.80
2018-08-17T08:00:21.112Z,6.80
2018-08-17T08:02:48.721Z,8.10
2018-08-17T08:05:16.323Z,7.53
2018-08-17T08:07:43.905Z,6.83
2018-08-17T08:10:11.910Z,5.97
2018-08-17T08:12:39.932Z,6.33
2018-08-17T08:15:07.860Z,6.70
2018-08-17T08:17:35.516Z,6.20
2018-08-17T08:20:08.643Z,6.50
2018-08-17T08:22:36.304Z,5.73
2018-08-17T08:25:04.168Z,5.23
2018-08-17T08:27:31.845Z,5.53
2018-08-17T08:29:59.762Z,6.03
2018-08-17T08:32:27.457Z,5.30
2018-08-17T08:34:55.224Z,6.00
2018-08-17T08:37:22.820Z,5.50
2018-08-17T08:39:50.502Z,4.87
2018-08-17T08:42:18.066Z,4.73
2018-08-17T08:44:45.692Z,4.70
2018-08-17T08:47:13.308Z,4.57
2018-08-17T08:49:40.914Z,4.60
2018-08-17T08:52:08.525Z,4.00
2018-08-17T08:54:36.145Z,4.20
2018-08-17T08:57:03.738Z,4.30
2018-08-17T08:59:31.306Z,4.50
2018-08-17T09:01:58.961Z,4.80
2018-08-17T09:04:26.668Z,4.60
2018-08-17T09:06:54.305Z,4.40
2018-08-17T09:09:21.938Z,4.83
2018-08-17T09:11:49.506Z,4.17
2018-08-17T09:14:18.168Z,3.80
2018-08-17T09:16:46.021Z,3.97
2018-08-17T09:19:13.980Z,4.10
2018-08-17T09:21:41.833Z,4.30
2018-08-17T09:24:09.728Z,4.03
2018-08-17T09:26:38.239Z,4.60
2018-08-17T09:29:06.483Z,4.00
2018-08-17T09:31:34.364Z,4.30
2018-08-17T09:34:02.200Z,4.40
2018-08-17T09:36:30.102Z,4.97
2018-08-17T09:38:57.942Z,4.50
2018-08-17T09:41:25.828Z,3.97
2018-08-17T09:43:53.695Z,3.70
2018-08-17T09:46:21.640Z,3.60
2018-08-17T09:48:49.508Z,3.50
2018-08-17T09:51:17.125Z,3.40
2018-08-17T09:53:44.714Z,3.80
2018-08-17T09:56:12.510Z,3.97
2018-08-17T09:58:40.413Z,3.53
2018-08-17T10:01:13.391Z,3.70
2018-08-17T10:03:43.712Z,3.70
2018-08-17T10:06:16.771Z,3.80
2018-08-17T10:08:49.856Z,3.70
2018-08-17T10:11:17.635Z,4.97
2018-08-17T10:13:45.500Z,3.77
2018-08-17T10:16:13.122Z,4.10
2018-08-17T10:18:45.367Z,3.40
2018-08-17T10:21:14.580Z,4.17
2018-08-17T10:23:42.310Z,4.53
2018-08-17T10:26:09.933Z,4.00
2018-08-17T10:28:37.603Z,3.80
2018-08-17T10:31:05.336Z,3.67
2018-08-17T10:33:33.010Z,3.63
2018-08-17T10:36:00.629Z,3.77
2018-08-17T10:38:28.280Z,3.23
2018-08-17T10:40:55.981Z,3.60
2018-08-17T10:43:23.549Z,2.90
2018-08-17T10:45:51.168Z,2.67
2018-08-17T10:48:18.752Z,3.10
2018-08-17T10:50:46.375Z,3.50
2018-08-17T10:53:13.983Z,2.90
2018-08-17T10:55:47.572Z,3.67
2018-08-17T11:00:58.829Z,3.20
2018-08-17T11:03:26.412Z,2.57
2018-08-17T11:05:54.016Z,2.93
2018-08-17T11:08:21.767Z,2.73
2018-08-17T11:10:49.397Z,2.60
2018-08-17T11:13:17.056Z,2.50
2018-08-17T11:15:44.700Z,2.73
2018-08-17T11:18:12.288Z,2.47
2018-08-17T11:20:39.917Z,2.40
2018-08-17T11:23:07.529Z,2.60
2018-08-17T11:25:35.166Z,2.43
2018-08-17T11:28:02.784Z,3.00
2018-08-17T11:30:30.417Z,2.60
2018-08-17T11:32:58.071Z,2.87
2018-08-17T11:35:25.674Z,2.70
2018-08-17T11:37:53.265Z,2.60
2018-08-17T11:40:20.864Z,2.80
2018-08-17T11:42:49.541Z,2.90
2018-08-17T11:45:22.799Z,2.50
2018-08-17T11:47:50.958Z,2.20
2018-08-17T11:50:19.785Z,2.60
2018-08-17T11:52:54.322Z,2.83
2018-08-17T11:55:22.482Z,3.03
2018-08-17T11:57:50.168Z,2.70
2018-08-17T12:00:17.800Z,2.60
2018-08-17T12:02:45.885Z,2.57
2018-08-17T12:05:13.534Z,3.33
2018-08-17T12:07:42.138Z,2.47
2018-08-17T12:10:09.740Z,2.60
2018-08-17T12:12:38.485Z,3.30
2018-08-17T12:15:06.842Z,2.67
2018-08-17T12:17:34.633Z,2.80
2018-08-17T12:20:02.438Z,2.97
2018-08-17T12:22:30.584Z,2.40
2018-08-17T12:24:58.142Z,2.60
2018-08-17T12:27:25.801Z,3.10
2018-08-17T12:29:53.382Z,2.97
2018-08-17T12:32:21.343Z,3.33
2018-08-17T12:34:48.941Z,2.77
2018-08-17T12:37:16.492Z,3.10
2018-08-17T12:39:44.069Z,3.07
2018-08-17T12:42:11.697Z,2.93
2018-08-17T12:44:39.272Z,3.20
2018-08-17T12:47:06.917Z,2.93
2018-08-17T12:49:34.540Z,2.47
2018-08-17T12:52:02.112Z,2.70
2018-08-17T12:54:31.844Z,3.20
2018-08-17T12:57:00.207Z,3.10
2018-08-17T12:59:27.921Z,2.80
2018-08-17T13:01:56.000Z,3.07
2018-08-17T13:04:23.969Z,2.50
2018-08-17T13:06:51.791Z,3.47
2018-08-17T13:09:19.405Z,3.20
2018-08-17T13:11:54.219Z,2.80
2018-08-17T13:14:21.844Z,3.83
2018-08-17T13:16:49.503Z,2.73
2018-08-17T13:19:17.163Z,3.50
2018-08-17T13:21:44.765Z,3.33
2018-08-17T13:24:12.317Z,3.30
2018-08-17T13:26:40.075Z,3.50
2018-08-17T13:29:07.649Z,3.10
2018-08-17T13:31:35.214Z,3.57
2018-08-17T13:34:02.803Z,3.50
2018-08-17T13:36:30.477Z,3.60
2018-08-17T13:38:58.049Z,3.10
2018-08-17T13:41:25.932Z,3.70
2018-08-17T13:43:53.539Z,3.90
2018-08-17T13:46:21.155Z,3.20
2018-08-17T13:48:48.746Z,3.33
2018-08-17T13:51:16.580Z,3.00
2018-08-17T13:53:44.140Z,3.10
2018-08-17T13:56:11.716Z,3.23
2018-08-17T13:58:39.555Z,3.33
2018-08-17T14:01:07.175Z,3.70
2018-08-17T14:03:35.394Z,3.83
2018-08-17T14:06:03.005Z,3.60
2018-08-17T14:08:30.647Z,3.50
2018-08-17T14:10:58.408Z,3.10
2018-08-17T14:13:26.065Z,3.50
2018-08-17T14:15:53.620Z,3.40
2018-08-17T14:18:21.230Z,3.53
2018-08-17T14:20:48.827Z,3.37
2018-08-17T14:23:16.405Z,3.47
2018-08-17T14:25:44.000Z,3.40
2018-08-17T14:28:11.701Z,3.60
2018-08-17T14:30:39.334Z,2.97
2018-08-17T14:33:06.936Z,2.93
2018-08-17T14:35:34.569Z,3.33
2018-08-17T14:38:02.139Z,3.60
2018-08-17T14:40:29.765Z,3.20
2018-08-17T14:42:57.280Z,3.10
2018-08-17T14:45:24.834Z,3.27
2018-08-17T14:47:52.398Z,3.10
2018-08-17T14:50:20.031Z,3.10
2018-08-17T14:52:47.603Z,3.60
2018-08-17T14:55:15.157Z,3.30
2018-08-17T14:57:42.749Z,3.10
2018-08-17T15:00:13.055Z,3.23
2018-08-17T15:02:40.663Z,3.13
2018-08-17T15:05:09.441Z,3.00
2018-08-17T15:07:37.309Z,3.10
2018-08-17T15:10:05.716Z,3.37
2018-08-17T15:12:33.315Z,3.50
2018-08-17T15:15:00.899Z,3.70
2018-08-17T15:17:28.500Z,3.67
2018-08-17T15:19:56.079Z,3.23
2018-08-17T15:22:23.619Z,4.20
2018-08-17T15:24:51.220Z,3.50
2018-08-17T15:27:18.780Z,3.60
2018-08-17T15:29:46.369Z,3.37
2018-08-17T15:32:13.940Z,3.40
2018-08-17T15:34:41.541Z,3.70
2018-08-17T15:37:09.119Z,3.30
2018-08-17T15:39:36.697Z,3.47
2018-08-17T15:42:04.317Z,3.60
2018-08-17T15:44:31.868Z,3.80
2018-08-17T15:46:59.411Z,3.13
2018-08-17T15:49:32.942Z,3.60
2018-08-17T15:52:01.408Z,4.27
2018-08-17T15:54:29.243Z,4.17
2018-08-17T15:56:56.907Z,4.00
2018-08-17T15:59:24.470Z,4.33
2018-08-17T16:01:52.125Z,4.07
2018-08-17T16:04:19.835Z,4.20
2018-08-17T16:06:47.423Z,5.13
2018-08-17T16:09:15.015Z,4.30
2018-08-17T16:11:42.608Z,4.40
2018-08-17T16:14:10.232Z,4.00
2018-08-17T16:16:38.206Z,4.23
2018-08-17T16:19:06.046Z,4.00
2018-08-17T16:21:34.116Z,4.80
2018-08-17T16:24:02.648Z,4.23
2018-08-17T16:26:30.297Z,4.10
2018-08-17T16:28:57.917Z,5.63
2018-08-17T16:31:25.514Z,4.80
2018-08-17T16:33:53.135Z,4.00
2018-08-17T16:36:20.740Z,4.37
2018-08-17T16:38:48.344Z,4.73
2018-08-17T16:41:15.969Z,4.57
2018-08-17T16:43:44.827Z,4.80
2018-08-17T16:46:12.906Z,4.87
2018-08-17T16:48:41.190Z,5.50
2018-08-17T16:51:08.783Z,5.07
2018-08-17T16:53:36.360Z,5.00
2018-08-17T16:56:04.063Z,4.80
2018-08-17T16:58:31.664Z,5.30
2018-08-17T17:00:59.327Z,4.63
2018-08-17T17:03:26.869Z,5.20
2018-08-17T17:06:00.343Z,15.20
2018-08-17T17:08:27.949Z,6.20
2018-08-17T17:10:55.588Z,5.60
2018-08-17T17:13:23.362Z,5.53
2018-08-17T17:15:50.954Z,6.30
2018-08-17T17:18:18.580Z,5.87
2018-08-17T17:20:46.188Z,7.17
2018-08-17T17:23:13.694Z,5.97
2018-08-17T17:25:41.538Z,5.60
2018-08-17T17:28:09.483Z,6.00
2018-08-17T17:30:42.870Z,5.80
2018-08-17T17:33:11.070Z,5.73
2018-08-17T17:35:39.984Z,6.37
2018-08-17T17:38:07.949Z,6.20
2018-08-17T17:40:35.602Z,6.20
2018-08-17T17:43:03.503Z,5.20
2018-08-17T17:45:31.059Z,5.87
2018-08-17T17:47:59.331Z,6.57
2018-08-17T17:50:26.933Z,6.47
2018-08-17T17:52:54.587Z,5.90
2018-08-17T17:55:22.399Z,6.00
2018-08-17T17:57:51.243Z,6.23
2018-08-17T18:00:18.832Z,6.17
2018-08-17T18:02:47.367Z,7.33
2018-08-17T18:05:14.964Z,6.77
2018-08-17T18:07:47.816Z,6.60
2018-08-17T18:10:16.276Z,6.67
2018-08-17T18:12:43.879Z,6.57
2018-08-17T18:15:12.013Z,7.50
2018-08-17T18:17:39.662Z,7.30
2018-08-17T18:20:07.226Z,7.00
2018-08-17T18:22:34.790Z,6.43
2018-08-17T18:25:08.591Z,7.40
2018-08-17T18:27:36.392Z,7.17
2018-08-17T18:30:04.283Z,7.23
2018-08-17T18:32:31.833Z,7.50
2018-08-17T18:34:59.418Z,7.40
2018-08-17T18:37:27.049Z,7.87
2018-08-17T18:39:54.598Z,7.90
2018-08-17T18:42:22.143Z,7.37
2018-08-17T18:44:49.730Z,7.23
2018-08-17T18:47:17.322Z,7.10
2018-08-17T18:49:44.879Z,6.77
2018-08-17T18:52:12.473Z,7.53
2018-08-17T18:54:40.596Z,8.27
2018-08-17T18:57:08.204Z,6.97
2018-08-17T18:59:35.822Z,7.47
2018-08-17T19:02:03.444Z,7.93
2018-08-17T19:04:31.035Z,8.47
2018-08-17T19:06:58.594Z,8.57
2018-08-17T19:09:26.155Z,7.70
2018-08-17T19:11:53.736Z,8.00
2018-08-17T19:14:21.300Z,8.27
2018-08-17T19:16:48.915Z,7.40
2018-08-17T19:19:16.503Z,7.90
2018-08-17T19:21:44.788Z,8.20
2018-08-17T19:24:12.889Z,7.93
2018-08-17T19:26:40.452Z,8.17
2018-08-17T19:29:08.059Z,7.90
2018-08-17T19:31:36.080Z,7.60
2018-08-17T19:34:03.639Z,9.07
2018-08-17T19:36:31.299Z,7.83
2018-08-17T19:38:58.861Z,7.50
2018-08-17T19:41:26.479Z,8.30
2018-08-17T19:43:54.407Z,7.60
2018-08-17T19:46:22.146Z,8.17
2018-08-17T19:48:49.617Z,8.20
2018-08-17T19:51:18.482Z,8.63
2018-08-17T19:53:46.394Z,7.63
2018-08-17T19:56:14.894Z,8.30
2018-08-17T19:58:42.935Z,8.70
2018-08-17T20:01:10.565Z,8.27
2018-08-17T20:03:38.184Z,8.43
2018-08-17T20:06:05.823Z,8.20
2018-08-17T20:08:33.397Z,8.70
2018-08-17T20:11:00.997Z,9.27
2018-08-17T20:13:28.632Z,9.10
2018-08-17T20:15:56.330Z,8.00
2018-08-17T20:18:23.927Z,8.70
2018-08-17T20:20:51.560Z,8.97
2018-08-17T20:23:19.794Z,8.87
2018-08-17T20:25:47.548Z,8.77
2018-08-17T20:28:15.039Z,8.70
2018-08-17T20:30:42.584Z,9.10
2018-08-17T20:33:10.796Z,8.40
2018-08-17T20:35:38.359Z,9.00
2018-08-17T20:38:06.092Z,8.40
2018-08-17T20:40:33.747Z,8.60
2018-08-17T20:43:01.424Z,9.00
2018-08-17T20:45:29.565Z,9.00
2018-08-17T20:47:57.248Z,8.67
2018-08-17T20:50:24.807Z,9.00
2018-08-17T20:52:58.540Z,9.70
2018-08-17T20:55:26.991Z,9.27
2018-08-17T20:57:55.703Z,9.40
2018-08-17T21:00:24.544Z,8.50
2018-08-17T21:02:52.131Z,9.30
2018-08-17T21:05:19.734Z,9.80
2018-08-17T21:07:48.371Z,9.80
2018-08-17T21:10:16.030Z,9.90
2018-08-17T21:12:44.027Z,9.73
2018-08-17T21:15:11.615Z,9.30
2018-08-17T21:17:39.216Z,9.20
2018-08-17T21:20:06.818Z,9.43
2018-08-17T21:22:34.419Z,9.33
2018-08-17T21:25:02.028Z,9.30
2018-08-17T21:27:29.758Z,9.47
2018-08-17T21:29:57.308Z,9.63
2018-08-17T21:32:24.973Z,9.47
2018-08-17T21:34:52.555Z,8.73
2018-08-17T21:37:20.196Z,9.97
2018-08-17T21:39:47.793Z,9.67
2018-08-17T21:42:15.590Z,9.63
2018-08-17T21:44:43.187Z,10.30
2018-08-17T21:47:10.868Z,9.87
2018-08-17T21:49:38.473Z,9.90
2018-08-17T21:52:10.582Z,9.03
2018-08-17T21:54:38.163Z,9.93
2018-08-17T21:57:05.768Z,10.23
2018-08-17T21:59:41.955Z,10.83
2018-08-17T22:02:10.218Z,9.70
2018-08-17T22:04:37.861Z,10.13
2018-08-17T22:07:09.876Z,9.00
2018-08-17T22:09:39.583Z,9.93
2018-08-17T22:12:07.456Z,9.80
2018-08-17T22:14:35.041Z,9.57
2018-08-17T22:17:02.874Z,10.70
2018-08-17T22:19:36.041Z,10.63
2018-08-17T22:22:03.705Z,11.00
2018-08-17T22:24:31.795Z,9.70
2018-08-17T22:26:59.392Z,10.13
2018-08-17T22:29:27.065Z,9.87
2018-08-17T22:31:54.623Z,9.40
2018-08-17T22:34:22.213Z,10.63
2018-08-17T22:36:49.819Z,10.40
2018-08-17T22:39:17.434Z,10.23
2018-08-17T22:41:45.070Z,10.17
2018-08-17T22:44:17.807Z,9.93
2018-08-17T22:46:49.822Z,11.00
2018-08-17T22:49:17.434Z,10.40
2018-08-17T22:51:45.024Z,10.90
2018-08-17T22:54:12.586Z,9.83
2018-08-17T22:56:40.150Z,10.17
2018-08-17T22:59:07.779Z,10.10
2018-08-17T23:01:35.456Z,9.83
2018-08-17T23:04:03.061Z,9.83
2018-08-17T23:06:30.711Z,11.07
2018-08-17T23:08:58.218Z,10.73
2018-08-17T23:11:37.975Z,11.20
2018-08-17T23:14:16.492Z,11.03
2018-08-17T23:16:45.681Z,10.70
2018-08-17T23:19:13.723Z,10.60
2018-08-17T23:21:41.555Z,9.67
2018-08-17T23:24:10.051Z,10.60
2018-08-17T23:26:37.716Z,10.50
2018-08-17T23:29:05.832Z,9.83
2018-08-17T23:31:33.641Z,10.60
2018-08-17T23:34:01.503Z,10.97
2018-08-17T23:36:29.267Z,9.70
2018-08-17T23:38:57.368Z,11.03
2018-08-17T23:41:25.318Z,10.30
2018-08-17T23:43:53.105Z,10.90
2018-08-17T23:46:20.940Z,11.00
2018-08-17T23:48:48.728Z,10.70
2018-08-17T23:51:16.585Z,10.50
2018-08-17T23:53:44.369Z,10.50
2018-08-17T23:56:12.273Z,12.30
2018-08-17T23:58:40.090Z,10.00
